UAL1611 KFLL-KEWR
Flight info
| Callsign | UAL1611 |
|---|---|
| Flight time | 2h 30m |
| Altitude | 31000 |
| Route | FEALX2 ETECK DCT GRUBR Y299 SEELO DCT GARIC Q129 AARNN DCT QUART PHLBO4 |
| Aircraft | B739/M-SDE2E3FGHIRWXY/LB1 |
Departure
| Time | 2026-05-05 18:43 |
|---|---|
| Airport | Fort Lauderdale Hollywood International Airport (KFLL) |
Arrival
| Time | 2026-05-05 21:13 |
|---|---|
| Airport | Newark Liberty International Airport (KEWR) |
| Time | Latitude | Longitude | Altitude | Speed | Heading |
|---|---|---|---|---|---|
| 2026-05-05 18:20 | 26.07330 | -80.14012 | 15 ft | 0 kts | 270° |
| 2026-05-05 18:30 | 26.07331 | -80.14000 | 15 ft | 2 kts | 270° |
| 2026-05-05 18:30 | 26.07331 | -80.13982 | 15 ft | 2 kts | 270° |
| 2026-05-05 18:31 | 26.07331 | -80.13964 | 16 ft | 2 kts | 262° |
| 2026-05-05 18:31 | 26.07333 | -80.13945 | 19 ft | 2 kts | 264° |
| 2026-05-05 18:31 | 26.07334 | -80.13927 | 18 ft | 2 kts | 278° |
| 2026-05-05 18:31 | 26.07331 | -80.13917 | 17 ft | 0 kts | 290° |
| 2026-05-05 18:34 | 26.07352 | -80.13949 | 17 ft | 6 kts | 327° |
| 2026-05-05 18:34 | 26.07409 | -80.13958 | 15 ft | 11 kts | 0° |
| 2026-05-05 18:34 | 26.07462 | -80.13957 | 15 ft | 11 kts | 4° |
| 2026-05-05 18:34 | 26.07535 | -80.13967 | 15 ft | 11 kts | 311° |
| 2026-05-05 18:35 | 26.07555 | -80.14098 | 16 ft | 14 kts | 269° |
| 2026-05-05 18:35 | 26.07555 | -80.14170 | 16 ft | 14 kts | 271° |
| 2026-05-05 18:35 | 26.07556 | -80.14276 | 16 ft | 13 kts | 268° |
| 2026-05-05 18:35 | 26.07557 | -80.14383 | 16 ft | 15 kts | 275° |
| 2026-05-05 18:36 | 26.07559 | -80.14498 | 16 ft | 15 kts | 269° |
| 2026-05-05 18:36 | 26.07559 | -80.14608 | 16 ft | 14 kts | 269° |
| 2026-05-05 18:36 | 26.07559 | -80.14750 | 16 ft | 19 kts | 269° |
| 2026-05-05 18:36 | 26.07503 | -80.14878 | 15 ft | 19 kts | 225° |
| 2026-05-05 18:37 | 26.07412 | -80.14980 | 15 ft | 18 kts | 227° |
| 2026-05-05 18:37 | 26.07342 | -80.15057 | 15 ft | 18 kts | 223° |
| 2026-05-05 18:37 | 26.07245 | -80.15124 | 15 ft | 17 kts | 181° |
| 2026-05-05 18:37 | 26.07120 | -80.15127 | 15 ft | 22 kts | 183° |
| 2026-05-05 18:38 | 26.06959 | -80.15128 | 15 ft | 23 kts | 180° |
| 2026-05-05 18:38 | 26.06796 | -80.15126 | 15 ft | 19 kts | 182° |
| 2026-05-05 18:38 | 26.06695 | -80.15193 | 20 ft | 23 kts | 266° |
| 2026-05-05 18:38 | 26.06692 | -80.15386 | 15 ft | 26 kts | 272° |
| 2026-05-05 18:39 | 26.06697 | -80.15578 | 15 ft | 24 kts | 269° |
| 2026-05-05 18:39 | 26.06699 | -80.15764 | 15 ft | 15 kts | 270° |
| 2026-05-05 18:39 | 26.06687 | -80.15805 | 15 ft | 0 kts | 230° |
| 2026-05-05 18:40 | 26.06686 | -80.15807 | 15 ft | 2 kts | 230° |
| 2026-05-05 18:40 | 26.06621 | -80.15822 | 16 ft | 14 kts | 178° |
| 2026-05-05 18:40 | 26.06584 | -80.15795 | 17 ft | 5 kts | 99° |
| 2026-05-05 18:40 | 26.06585 | -80.15777 | 18 ft | 0 kts | 88° |
| 2026-05-05 18:42 | 26.06585 | -80.15763 | 18 ft | 9 kts | 87° |
| 2026-05-05 18:42 | 26.06587 | -80.15415 | 21 ft | 84 kts | 90° |
| 2026-05-05 18:42 | 26.06583 | -80.14508 | 41 ft | 147 kts | 90° |
| 2026-05-05 18:42 | 26.06539 | -80.13212 | 311 ft | 179 kts | 92° |
| 2026-05-05 18:43 | 26.06600 | -80.11851 | 1160 ft | 177 kts | 79° |
| 2026-05-05 18:43 | 26.06756 | -80.10490 | 2020 ft | 184 kts | 89° |
| 2026-05-05 18:43 | 26.06724 | -80.08947 | 2301 ft | 212 kts | 89° |
| 2026-05-05 18:43 | 26.06709 | -80.07223 | 2470 ft | 233 kts | 89° |
| 2026-05-05 18:44 | 26.06709 | -80.05379 | 2848 ft | 242 kts | 89° |
| 2026-05-05 18:44 | 26.06716 | -80.03481 | 3298 ft | 249 kts | 89° |
| 2026-05-05 18:44 | 26.06760 | -80.01535 | 3698 ft | 259 kts | 80° |
| 2026-05-05 18:44 | 26.07495 | -79.99705 | 4018 ft | 269 kts | 51° |
| 2026-05-05 18:45 | 26.08702 | -79.98080 | 4672 ft | 274 kts | 49° |
| 2026-05-05 18:45 | 26.09943 | -79.96436 | 5354 ft | 279 kts | 49° |
| 2026-05-05 18:45 | 26.11199 | -79.94761 | 6104 ft | 281 kts | 49° |
| 2026-05-05 18:45 | 26.12441 | -79.93093 | 6758 ft | 286 kts | 49° |
| 2026-05-05 18:46 | 26.13720 | -79.91366 | 7389 ft | 291 kts | 49° |
| 2026-05-05 18:46 | 26.15013 | -79.89617 | 8036 ft | 294 kts | 49° |
| 2026-05-05 18:46 | 26.16310 | -79.87820 | 8702 ft | 298 kts | 51° |
| 2026-05-05 18:46 | 26.17534 | -79.85972 | 9348 ft | 302 kts | 52° |
| 2026-05-05 18:47 | 26.18772 | -79.84054 | 9981 ft | 307 kts | 52° |
| 2026-05-05 18:47 | 26.20041 | -79.82084 | 10325 ft | 322 kts | 52° |
| 2026-05-05 18:47 | 26.21395 | -79.79992 | 10484 ft | 342 kts | 52° |
| 2026-05-05 18:47 | 26.22830 | -79.77781 | 10627 ft | 362 kts | 52° |
| 2026-05-05 18:48 | 26.24344 | -79.75451 | 10761 ft | 379 kts | 52° |
| 2026-05-05 18:48 | 26.25904 | -79.73054 | 10880 ft | 395 kts | 52° |
| 2026-05-05 18:48 | 26.27550 | -79.70524 | 11149 ft | 405 kts | 52° |
| 2026-05-05 18:48 | 26.29223 | -79.67976 | 11593 ft | 408 kts | 50° |
| 2026-05-05 18:49 | 26.31065 | -79.65623 | 12069 ft | 408 kts | 44° |
| 2026-05-05 18:49 | 26.33065 | -79.63338 | 12549 ft | 411 kts | 43° |
| 2026-05-05 18:49 | 26.35093 | -79.61072 | 13003 ft | 414 kts | 42° |
| 2026-05-05 18:49 | 26.37130 | -79.58788 | 13439 ft | 417 kts | 43° |
| 2026-05-05 18:50 | 26.39153 | -79.56499 | 13857 ft | 420 kts | 43° |
| 2026-05-05 18:50 | 26.41208 | -79.54151 | 14257 ft | 422 kts | 43° |
| 2026-05-05 18:50 | 26.43261 | -79.51792 | 14679 ft | 424 kts | 43° |
| 2026-05-05 18:50 | 26.45321 | -79.49416 | 15090 ft | 425 kts | 43° |
| 2026-05-05 18:51 | 26.47365 | -79.47055 | 15473 ft | 428 kts | 43° |
| 2026-05-05 18:51 | 26.49446 | -79.44652 | 15852 ft | 430 kts | 43° |
| 2026-05-05 18:51 | 26.51532 | -79.42242 | 16238 ft | 432 kts | 42° |
| 2026-05-05 18:51 | 26.53610 | -79.39842 | 16608 ft | 434 kts | 42° |
| 2026-05-05 18:52 | 26.55823 | -79.37559 | 16972 ft | 432 kts | 34° |
| 2026-05-05 18:52 | 26.58318 | -79.35693 | 17273 ft | 431 kts | 27° |
| 2026-05-05 18:52 | 26.60885 | -79.33973 | 17798 ft | 427 kts | 26° |
| 2026-05-05 18:52 | 26.63409 | -79.32301 | 18304 ft | 425 kts | 26° |
| 2026-05-05 18:53 | 26.65955 | -79.30611 | 18746 ft | 423 kts | 26° |
| 2026-05-05 18:53 | 26.68509 | -79.28904 | 18846 ft | 432 kts | 26° |
| 2026-05-05 18:53 | 26.71121 | -79.27148 | 18953 ft | 440 kts | 26° |
| 2026-05-05 18:53 | 26.73728 | -79.25383 | 19166 ft | 443 kts | 26° |
| 2026-05-05 18:54 | 26.76372 | -79.23583 | 19473 ft | 443 kts | 26° |
| 2026-05-05 18:54 | 26.78978 | -79.21804 | 19756 ft | 445 kts | 26° |
| 2026-05-05 18:54 | 26.81636 | -79.19988 | 20009 ft | 447 kts | 26° |
| 2026-05-05 18:54 | 26.84301 | -79.18167 | 20252 ft | 449 kts | 26° |
| 2026-05-05 18:55 | 26.86954 | -79.16353 | 20499 ft | 450 kts | 26° |
| 2026-05-05 18:55 | 26.89643 | -79.14514 | 20748 ft | 452 kts | 26° |
| 2026-05-05 18:55 | 26.92338 | -79.12670 | 20998 ft | 454 kts | 26° |
| 2026-05-05 18:55 | 26.95018 | -79.10836 | 21219 ft | 455 kts | 26° |
| 2026-05-05 18:56 | 26.97742 | -79.08970 | 21450 ft | 457 kts | 26° |
| 2026-05-05 18:56 | 27.00428 | -79.07130 | 21674 ft | 459 kts | 26° |
| 2026-05-05 18:56 | 27.03166 | -79.05253 | 21894 ft | 460 kts | 26° |
| 2026-05-05 18:56 | 27.05902 | -79.03376 | 22105 ft | 462 kts | 26° |
| 2026-05-05 18:57 | 27.08656 | -79.01486 | 22311 ft | 463 kts | 26° |
| 2026-05-05 18:57 | 27.11380 | -78.99614 | 22515 ft | 465 kts | 25° |
| 2026-05-05 18:57 | 27.14149 | -78.97712 | 22710 ft | 466 kts | 25° |
| 2026-05-05 18:57 | 27.16935 | -78.95796 | 22908 ft | 467 kts | 25° |
| 2026-05-05 18:58 | 27.19704 | -78.93890 | 23095 ft | 469 kts | 25° |
| 2026-05-05 18:58 | 27.22470 | -78.91985 | 23277 ft | 470 kts | 25° |
| 2026-05-05 18:58 | 27.25253 | -78.90068 | 23527 ft | 469 kts | 25° |
| 2026-05-05 18:58 | 27.28037 | -78.88146 | 23887 ft | 465 kts | 25° |
| 2026-05-05 18:59 | 27.30791 | -78.86244 | 24206 ft | 461 kts | 25° |
| 2026-05-05 18:59 | 27.33488 | -78.84383 | 24537 ft | 458 kts | 25° |
| 2026-05-05 18:59 | 27.36209 | -78.82505 | 24874 ft | 455 kts | 25° |
| 2026-05-05 18:59 | 27.38960 | -78.80803 | 25202 ft | 446 kts | 17° |
| 2026-05-05 19:00 | 27.41827 | -78.79611 | 25547 ft | 435 kts | 9° |
| 2026-05-05 19:00 | 27.44753 | -78.78940 | 25894 ft | 425 kts | 1° |
| 2026-05-05 19:00 | 27.47646 | -78.78526 | 26260 ft | 423 kts | 0° |
| 2026-05-05 19:00 | 27.50582 | -78.78126 | 26576 ft | 423 kts | 0° |
| 2026-05-05 19:01 | 27.53530 | -78.77730 | 26608 ft | 430 kts | 0° |
| 2026-05-05 19:01 | 27.56530 | -78.77320 | 26668 ft | 436 kts | 0° |
| 2026-05-05 19:01 | 27.59523 | -78.76901 | 26713 ft | 442 kts | 1° |
| 2026-05-05 19:01 | 27.62589 | -78.76462 | 26760 ft | 447 kts | 1° |
| 2026-05-05 19:02 | 27.65692 | -78.76012 | 26801 ft | 451 kts | 1° |
| 2026-05-05 19:02 | 27.68841 | -78.75551 | 26840 ft | 455 kts | 1° |
| 2026-05-05 19:02 | 27.71955 | -78.75092 | 26899 ft | 459 kts | 1° |
| 2026-05-05 19:02 | 27.75156 | -78.74620 | 27012 ft | 460 kts | 1° |
| 2026-05-05 19:03 | 27.78329 | -78.74149 | 27255 ft | 458 kts | 1° |
| 2026-05-05 19:03 | 27.81454 | -78.73686 | 27564 ft | 456 kts | 1° |
| 2026-05-05 19:03 | 27.84595 | -78.73220 | 27858 ft | 453 kts | 1° |
| 2026-05-05 19:03 | 27.87737 | -78.72756 | 28126 ft | 452 kts | 1° |
| 2026-05-05 19:04 | 27.90834 | -78.72299 | 28384 ft | 452 kts | 1° |
| 2026-05-05 19:04 | 27.93959 | -78.71839 | 28671 ft | 450 kts | 1° |
| 2026-05-05 19:04 | 27.97070 | -78.71380 | 29003 ft | 449 kts | 1° |
| 2026-05-05 19:04 | 28.00125 | -78.70929 | 29312 ft | 447 kts | 1° |
| 2026-05-05 19:05 | 28.03213 | -78.70474 | 29625 ft | 446 kts | 1° |
| 2026-05-05 19:05 | 28.06292 | -78.70019 | 29966 ft | 445 kts | 1° |
| 2026-05-05 19:05 | 28.09367 | -78.69564 | 30275 ft | 443 kts | 1° |
| 2026-05-05 19:05 | 28.12430 | -78.69111 | 30586 ft | 441 kts | 0° |
| 2026-05-05 19:06 | 28.15427 | -78.68667 | 30963 ft | 438 kts | 0° |
| 2026-05-05 19:06 | 28.18452 | -78.68218 | 31054 ft | 438 kts | 0° |
| 2026-05-05 19:06 | 28.24487 | -78.67325 | 31080 ft | 436 kts | 0° |
| 2026-05-05 19:07 | 28.30466 | -78.66440 | 31087 ft | 435 kts | 0° |
| 2026-05-05 19:07 | 28.36470 | -78.65549 | 31093 ft | 434 kts | 0° |
| 2026-05-05 19:08 | 28.42465 | -78.64658 | 31083 ft | 434 kts | 0° |
| 2026-05-05 19:08 | 28.48423 | -78.63771 | 31093 ft | 436 kts | 0° |
| 2026-05-05 19:09 | 28.54479 | -78.62873 | 31097 ft | 444 kts | 0° |
| 2026-05-05 19:09 | 28.60612 | -78.61958 | 31088 ft | 444 kts | 0° |
| 2026-05-05 19:10 | 28.66742 | -78.61039 | 31089 ft | 444 kts | 0° |
| 2026-05-05 19:10 | 28.72869 | -78.60120 | 31090 ft | 443 kts | 0° |
| 2026-05-05 19:11 | 28.78944 | -78.59210 | 31089 ft | 443 kts | 0° |
| 2026-05-05 19:11 | 28.85065 | -78.58293 | 31092 ft | 442 kts | 0° |
| 2026-05-05 19:12 | 28.91149 | -78.57380 | 31094 ft | 442 kts | 0° |
| 2026-05-05 19:12 | 28.97259 | -78.56462 | 31093 ft | 442 kts | 0° |
| 2026-05-05 19:13 | 29.03342 | -78.55546 | 31093 ft | 441 kts | 0° |
| 2026-05-05 19:13 | 29.09440 | -78.54627 | 31097 ft | 441 kts | 0° |
| 2026-05-05 19:14 | 29.15507 | -78.53712 | 31099 ft | 441 kts | 0° |
| 2026-05-05 19:14 | 29.21577 | -78.52795 | 31100 ft | 441 kts | 0° |
| 2026-05-05 19:15 | 29.27662 | -78.51875 | 31097 ft | 441 kts | 0° |
| 2026-05-05 19:15 | 29.33724 | -78.50957 | 31097 ft | 440 kts | 0° |
| 2026-05-05 19:16 | 29.39784 | -78.50039 | 31098 ft | 440 kts | 0° |
| 2026-05-05 19:16 | 29.45859 | -78.49117 | 31099 ft | 440 kts | 0° |
| 2026-05-05 19:17 | 29.51883 | -78.48956 | 31109 ft | 427 kts | 348° |
| 2026-05-05 19:17 | 29.57795 | -78.49644 | 31109 ft | 427 kts | 348° |
| 2026-05-05 19:18 | 29.63715 | -78.50323 | 31099 ft | 428 kts | 348° |
| 2026-05-05 19:18 | 29.69642 | -78.50975 | 31101 ft | 428 kts | 348° |
| 2026-05-05 19:19 | 29.75562 | -78.51617 | 31105 ft | 428 kts | 348° |
| 2026-05-05 19:19 | 29.81492 | -78.52260 | 31102 ft | 428 kts | 348° |
| 2026-05-05 19:20 | 29.87418 | -78.52903 | 31102 ft | 428 kts | 348° |
| 2026-05-05 19:20 | 29.93303 | -78.53543 | 31107 ft | 427 kts | 348° |
| 2026-05-05 19:21 | 29.99218 | -78.54188 | 31105 ft | 427 kts | 348° |
| 2026-05-05 19:21 | 30.05146 | -78.54834 | 31107 ft | 427 kts | 348° |
| 2026-05-05 19:22 | 30.11060 | -78.55480 | 31111 ft | 427 kts | 348° |
| 2026-05-05 19:22 | 30.17031 | -78.55684 | 31102 ft | 437 kts | 359° |
| 2026-05-05 19:23 | 30.23074 | -78.54774 | 31109 ft | 438 kts | 0° |
| 2026-05-05 19:23 | 30.29115 | -78.53861 | 31114 ft | 438 kts | 360° |
| 2026-05-05 19:24 | 30.35159 | -78.52985 | 31114 ft | 437 kts | 360° |
| 2026-05-05 19:24 | 30.41151 | -78.52123 | 31113 ft | 437 kts | 360° |
| 2026-05-05 19:25 | 30.47189 | -78.51196 | 31115 ft | 438 kts | 0° |
| 2026-05-05 19:25 | 30.53221 | -78.50208 | 31116 ft | 438 kts | 1° |
| 2026-05-05 19:26 | 30.59243 | -78.49220 | 31113 ft | 437 kts | 0° |
| 2026-05-05 19:26 | 30.65264 | -78.48240 | 31117 ft | 437 kts | 0° |
| 2026-05-05 19:27 | 30.71286 | -78.47263 | 31122 ft | 436 kts | 0° |
| 2026-05-05 19:27 | 30.77300 | -78.46287 | 31121 ft | 436 kts | 0° |
| 2026-05-05 19:28 | 30.83306 | -78.45310 | 31119 ft | 436 kts | 1° |
| 2026-05-05 19:28 | 30.89314 | -78.44332 | 31121 ft | 436 kts | 1° |
| 2026-05-05 19:29 | 30.95318 | -78.43353 | 31123 ft | 435 kts | 1° |
| 2026-05-05 19:29 | 31.01320 | -78.42374 | 31125 ft | 435 kts | 1° |
| 2026-05-05 19:30 | 31.07276 | -78.41400 | 31127 ft | 435 kts | 1° |
| 2026-05-05 19:30 | 31.13271 | -78.40420 | 31121 ft | 435 kts | 1° |
| 2026-05-05 19:31 | 31.19261 | -78.39438 | 31121 ft | 435 kts | 1° |
| 2026-05-05 19:31 | 31.25250 | -78.38456 | 31123 ft | 434 kts | 1° |
| 2026-05-05 19:32 | 31.31233 | -78.37473 | 31123 ft | 434 kts | 1° |
| 2026-05-05 19:32 | 31.37216 | -78.36489 | 31127 ft | 434 kts | 1° |
| 2026-05-05 19:33 | 31.43160 | -78.35510 | 31124 ft | 434 kts | 1° |
| 2026-05-05 19:33 | 31.49144 | -78.34523 | 31129 ft | 434 kts | 1° |
| 2026-05-05 19:34 | 31.55123 | -78.33536 | 31126 ft | 434 kts | 1° |
| 2026-05-05 19:35 | 31.63078 | -78.32220 | 31125 ft | 434 kts | 1° |
| 2026-05-05 19:35 | 31.69056 | -78.31230 | 31126 ft | 434 kts | 1° |
| 2026-05-05 19:36 | 31.75035 | -78.30239 | 31128 ft | 434 kts | 1° |
| 2026-05-05 19:36 | 31.81012 | -78.29247 | 31126 ft | 434 kts | 1° |
| 2026-05-05 19:37 | 31.86984 | -78.28253 | 31125 ft | 433 kts | 1° |
| 2026-05-05 19:37 | 31.92960 | -78.27258 | 31124 ft | 433 kts | 1° |
| 2026-05-05 19:38 | 31.98890 | -78.26270 | 31122 ft | 433 kts | 1° |
| 2026-05-05 19:38 | 32.04855 | -78.25296 | 31124 ft | 433 kts | 1° |
| 2026-05-05 19:39 | 32.10830 | -78.24427 | 31127 ft | 432 kts | 0° |
| 2026-05-05 19:39 | 32.16805 | -78.23578 | 31124 ft | 432 kts | 0° |
| 2026-05-05 19:40 | 32.22773 | -78.22718 | 31128 ft | 432 kts | 1° |
| 2026-05-05 19:40 | 32.28747 | -78.21848 | 31123 ft | 432 kts | 1° |
| 2026-05-05 19:41 | 32.34718 | -78.20974 | 31123 ft | 432 kts | 1° |
| 2026-05-05 19:41 | 32.40692 | -78.20099 | 31125 ft | 433 kts | 1° |
| 2026-05-05 19:42 | 32.46665 | -78.19223 | 31126 ft | 433 kts | 1° |
| 2026-05-05 19:42 | 32.52604 | -78.18350 | 31126 ft | 433 kts | 1° |
| 2026-05-05 19:43 | 32.58580 | -78.17471 | 31125 ft | 433 kts | 1° |
| 2026-05-05 19:43 | 32.64556 | -78.16591 | 31123 ft | 433 kts | 1° |
| 2026-05-05 19:44 | 32.70537 | -78.15710 | 31122 ft | 433 kts | 1° |
| 2026-05-05 19:44 | 32.76522 | -78.14826 | 31120 ft | 433 kts | 1° |
| 2026-05-05 19:45 | 32.82510 | -78.13940 | 31123 ft | 434 kts | 1° |
| 2026-05-05 19:45 | 32.88499 | -78.13054 | 31117 ft | 434 kts | 1° |
| 2026-05-05 19:46 | 32.94483 | -78.12166 | 31123 ft | 434 kts | 1° |
| 2026-05-05 19:46 | 33.00478 | -78.11276 | 31121 ft | 434 kts | 1° |
| 2026-05-05 19:47 | 33.06475 | -78.10385 | 31122 ft | 434 kts | 1° |
| 2026-05-05 19:47 | 33.12436 | -78.09497 | 31119 ft | 435 kts | 1° |
| 2026-05-05 19:48 | 33.18437 | -78.08603 | 31120 ft | 435 kts | 1° |
| 2026-05-05 19:48 | 33.24449 | -78.07705 | 31122 ft | 435 kts | 1° |
| 2026-05-05 19:49 | 33.30450 | -78.06808 | 31122 ft | 435 kts | 1° |
| 2026-05-05 19:49 | 33.36454 | -78.05909 | 31119 ft | 435 kts | 1° |
| 2026-05-05 19:50 | 33.42473 | -78.05007 | 31122 ft | 435 kts | 2° |
| 2026-05-05 19:50 | 33.48489 | -78.04104 | 31119 ft | 436 kts | 2° |
| 2026-05-05 19:51 | 33.54503 | -78.03200 | 31122 ft | 436 kts | 2° |
| 2026-05-05 19:51 | 33.60528 | -78.02293 | 31113 ft | 436 kts | 2° |
| 2026-05-05 19:52 | 33.66550 | -78.01385 | 31124 ft | 436 kts | 2° |
| 2026-05-05 19:52 | 33.72573 | -78.00475 | 31124 ft | 437 kts | 2° |
| 2026-05-05 19:53 | 33.78604 | -77.99563 | 31128 ft | 437 kts | 2° |
| 2026-05-05 19:53 | 33.84640 | -77.98649 | 31133 ft | 437 kts | 2° |
| 2026-05-05 19:54 | 33.90637 | -77.97986 | 31136 ft | 434 kts | 358° |
| 2026-05-05 19:54 | 33.96708 | -77.97784 | 31136 ft | 434 kts | 356° |
| 2026-05-05 19:55 | 34.02708 | -77.97624 | 31132 ft | 434 kts | 356° |
| 2026-05-05 19:55 | 34.08753 | -77.97431 | 31128 ft | 435 kts | 357° |
| 2026-05-05 19:56 | 34.14800 | -77.97217 | 31126 ft | 435 kts | 357° |
| 2026-05-05 19:56 | 34.20864 | -77.96996 | 31131 ft | 435 kts | 357° |
| 2026-05-05 19:57 | 34.26918 | -77.96774 | 31129 ft | 436 kts | 357° |
| 2026-05-05 19:57 | 34.32984 | -77.96552 | 31127 ft | 436 kts | 357° |
| 2026-05-05 19:58 | 34.39049 | -77.96330 | 31127 ft | 436 kts | 357° |
| 2026-05-05 19:58 | 34.45114 | -77.96108 | 31119 ft | 436 kts | 357° |
| 2026-05-05 19:59 | 34.51188 | -77.95885 | 31103 ft | 437 kts | 357° |
| 2026-05-05 19:59 | 34.57264 | -77.95662 | 31101 ft | 437 kts | 357° |
| 2026-05-05 20:00 | 34.63344 | -77.95438 | 31101 ft | 437 kts | 357° |
| 2026-05-05 20:00 | 34.69436 | -77.95214 | 31104 ft | 438 kts | 357° |
| 2026-05-05 20:01 | 34.75530 | -77.94989 | 31091 ft | 438 kts | 357° |
| 2026-05-05 20:01 | 34.81582 | -77.94766 | 31093 ft | 439 kts | 357° |
| 2026-05-05 20:02 | 34.87671 | -77.94541 | 31086 ft | 439 kts | 357° |
| 2026-05-05 20:02 | 34.93802 | -77.94313 | 31081 ft | 440 kts | 357° |
| 2026-05-05 20:03 | 34.99918 | -77.94086 | 31081 ft | 440 kts | 357° |
| 2026-05-05 20:03 | 35.06041 | -77.93859 | 31076 ft | 440 kts | 357° |
| 2026-05-05 20:04 | 35.12166 | -77.93633 | 31086 ft | 440 kts | 357° |
| 2026-05-05 20:04 | 35.18283 | -77.93411 | 31092 ft | 440 kts | 357° |
| 2026-05-05 20:05 | 35.24416 | -77.93179 | 31082 ft | 441 kts | 357° |
| 2026-05-05 20:05 | 35.30545 | -77.92943 | 31085 ft | 441 kts | 357° |
| 2026-05-05 20:06 | 35.36646 | -77.93151 | 31087 ft | 438 kts | 352° |
| 2026-05-05 20:06 | 35.42729 | -77.93725 | 31075 ft | 438 kts | 351° |
| 2026-05-05 20:07 | 35.48814 | -77.94297 | 31079 ft | 439 kts | 352° |
| 2026-05-05 20:07 | 35.54913 | -77.94827 | 31079 ft | 440 kts | 352° |
| 2026-05-05 20:08 | 35.61025 | -77.95338 | 31079 ft | 440 kts | 352° |
| 2026-05-05 20:08 | 35.67105 | -77.95843 | 31058 ft | 441 kts | 352° |
| 2026-05-05 20:09 | 35.73228 | -77.96353 | 31057 ft | 441 kts | 352° |
| 2026-05-05 20:09 | 35.79347 | -77.96864 | 31055 ft | 441 kts | 352° |
| 2026-05-05 20:10 | 35.85483 | -77.97378 | 31056 ft | 442 kts | 352° |
| 2026-05-05 20:10 | 35.91622 | -77.97893 | 31057 ft | 442 kts | 352° |
| 2026-05-05 20:11 | 35.97764 | -77.98409 | 31057 ft | 443 kts | 352° |
| 2026-05-05 20:11 | 36.03918 | -77.98927 | 31056 ft | 444 kts | 352° |
| 2026-05-05 20:12 | 36.10085 | -77.99446 | 31055 ft | 444 kts | 352° |
| 2026-05-05 20:12 | 36.16263 | -77.99968 | 31052 ft | 445 kts | 352° |
| 2026-05-05 20:13 | 36.22444 | -78.00490 | 31047 ft | 445 kts | 352° |
| 2026-05-05 20:13 | 36.28628 | -78.01014 | 31040 ft | 446 kts | 352° |
| 2026-05-05 20:14 | 36.34828 | -78.01539 | 31040 ft | 446 kts | 352° |
| 2026-05-05 20:14 | 36.41068 | -78.01116 | 31047 ft | 456 kts | 6° |
| 2026-05-05 20:15 | 36.47244 | -77.99461 | 31055 ft | 458 kts | 7° |
| 2026-05-05 20:15 | 36.53469 | -77.97765 | 31056 ft | 458 kts | 7° |
| 2026-05-05 20:16 | 36.59700 | -77.96106 | 31065 ft | 458 kts | 7° |
| 2026-05-05 20:16 | 36.65933 | -77.94468 | 31068 ft | 458 kts | 7° |
| 2026-05-05 20:17 | 36.72178 | -77.92829 | 31065 ft | 459 kts | 7° |
| 2026-05-05 20:17 | 36.78435 | -77.91184 | 31016 ft | 459 kts | 7° |
| 2026-05-05 20:18 | 36.84667 | -77.89541 | 31024 ft | 459 kts | 7° |
| 2026-05-05 20:18 | 36.90940 | -77.87884 | 31015 ft | 460 kts | 7° |
| 2026-05-05 20:19 | 36.97200 | -77.86228 | 30986 ft | 460 kts | 7° |
| 2026-05-05 20:19 | 37.03471 | -77.84567 | 30986 ft | 460 kts | 7° |
| 2026-05-05 20:20 | 37.09739 | -77.82903 | 30984 ft | 461 kts | 7° |
| 2026-05-05 20:20 | 37.16008 | -77.81236 | 30988 ft | 461 kts | 7° |
| 2026-05-05 20:21 | 37.22288 | -77.79563 | 30990 ft | 461 kts | 7° |
| 2026-05-05 20:21 | 37.28519 | -77.77900 | 30989 ft | 461 kts | 7° |
| 2026-05-05 20:22 | 37.34802 | -77.76221 | 30991 ft | 461 kts | 7° |
| 2026-05-05 20:22 | 37.41083 | -77.74539 | 30984 ft | 462 kts | 7° |
| 2026-05-05 20:23 | 37.47393 | -77.72848 | 30997 ft | 466 kts | 7° |
| 2026-05-05 20:23 | 37.53664 | -77.70641 | 30972 ft | 479 kts | 23° |
| 2026-05-05 20:24 | 37.59318 | -77.66054 | 30983 ft | 485 kts | 28° |
| 2026-05-05 20:24 | 37.64940 | -77.61356 | 30978 ft | 485 kts | 27° |
| 2026-05-05 20:25 | 37.70607 | -77.56742 | 30974 ft | 485 kts | 27° |
| 2026-05-05 20:25 | 37.76275 | -77.52144 | 30974 ft | 485 kts | 27° |
| 2026-05-05 20:26 | 37.81950 | -77.47535 | 30983 ft | 485 kts | 27° |
| 2026-05-05 20:26 | 37.87622 | -77.42916 | 30969 ft | 485 kts | 27° |
| 2026-05-05 20:27 | 37.93295 | -77.38286 | 30962 ft | 485 kts | 27° |
| 2026-05-05 20:27 | 37.98004 | -77.34439 | 30961 ft | 485 kts | 27° |
| 2026-05-05 20:28 | 38.03667 | -77.29808 | 30938 ft | 484 kts | 27° |
| 2026-05-05 20:28 | 38.10249 | -77.24421 | 30935 ft | 484 kts | 27° |
| 2026-05-05 20:29 | 38.14989 | -77.20533 | 30928 ft | 484 kts | 27° |
| 2026-05-05 20:29 | 38.20633 | -77.15892 | 30930 ft | 483 kts | 27° |
| 2026-05-05 20:30 | 38.26244 | -77.11272 | 30932 ft | 483 kts | 27° |
| 2026-05-05 20:30 | 38.31830 | -77.06500 | 30926 ft | 485 kts | 31° |
| 2026-05-05 20:31 | 38.37221 | -77.01281 | 30926 ft | 487 kts | 32° |
| 2026-05-05 20:31 | 38.42573 | -76.96002 | 30925 ft | 486 kts | 32° |
| 2026-05-05 20:32 | 38.47951 | -76.90772 | 30931 ft | 486 kts | 32° |
| 2026-05-05 20:32 | 38.53343 | -76.85561 | 30917 ft | 486 kts | 32° |
| 2026-05-05 20:33 | 38.58711 | -76.80368 | 30912 ft | 486 kts | 32° |
| 2026-05-05 20:33 | 38.64090 | -76.75148 | 30902 ft | 486 kts | 32° |
| 2026-05-05 20:34 | 38.69473 | -76.69910 | 30901 ft | 486 kts | 32° |
| 2026-05-05 20:34 | 38.74864 | -76.64658 | 30903 ft | 486 kts | 32° |
| 2026-05-05 20:35 | 38.80247 | -76.59405 | 30904 ft | 487 kts | 32° |
| 2026-05-05 20:35 | 38.85632 | -76.54139 | 30910 ft | 487 kts | 32° |
| 2026-05-05 20:36 | 38.91011 | -76.48867 | 30920 ft | 487 kts | 32° |
| 2026-05-05 20:36 | 38.96389 | -76.43584 | 30914 ft | 487 kts | 32° |
| 2026-05-05 20:37 | 39.01734 | -76.38325 | 30910 ft | 487 kts | 32° |
| 2026-05-05 20:37 | 39.06946 | -76.32705 | 30913 ft | 491 kts | 37° |
| 2026-05-05 20:38 | 39.11948 | -76.26719 | 30912 ft | 492 kts | 38° |
| 2026-05-05 20:38 | 39.16979 | -76.20745 | 30912 ft | 491 kts | 37° |
| 2026-05-05 20:39 | 39.22042 | -76.14822 | 30908 ft | 491 kts | 37° |
| 2026-05-05 20:39 | 39.27106 | -76.08893 | 30910 ft | 492 kts | 37° |
| 2026-05-05 20:40 | 39.32128 | -76.02994 | 30910 ft | 492 kts | 37° |
| 2026-05-05 20:40 | 39.37217 | -75.97002 | 30901 ft | 489 kts | 37° |
| 2026-05-05 20:40 | 39.39728 | -75.94041 | 30694 ft | 489 kts | 37° |
| 2026-05-05 20:41 | 39.42221 | -75.91101 | 30335 ft | 494 kts | 38° |
| 2026-05-05 20:41 | 39.44768 | -75.88094 | 29981 ft | 498 kts | 38° |
| 2026-05-05 20:41 | 39.47329 | -75.85066 | 29541 ft | 499 kts | 38° |
| 2026-05-05 20:41 | 39.49892 | -75.82029 | 28981 ft | 499 kts | 39° |
| 2026-05-05 20:42 | 39.52442 | -75.79002 | 28436 ft | 496 kts | 39° |
| 2026-05-05 20:42 | 39.54984 | -75.75985 | 27913 ft | 496 kts | 39° |
| 2026-05-05 20:42 | 39.57542 | -75.72946 | 27372 ft | 499 kts | 39° |
| 2026-05-05 20:42 | 39.60088 | -75.69921 | 26683 ft | 504 kts | 39° |
| 2026-05-05 20:43 | 39.62704 | -75.66806 | 26030 ft | 507 kts | 39° |
| 2026-05-05 20:43 | 39.65311 | -75.63699 | 25350 ft | 510 kts | 39° |
| 2026-05-05 20:43 | 39.67911 | -75.60597 | 24684 ft | 505 kts | 40° |
| 2026-05-05 20:43 | 39.70478 | -75.57520 | 24032 ft | 499 kts | 40° |
| 2026-05-05 20:44 | 39.73008 | -75.54475 | 23380 ft | 494 kts | 40° |
| 2026-05-05 20:44 | 39.75520 | -75.51444 | 22625 ft | 490 kts | 40° |
| 2026-05-05 20:44 | 39.78007 | -75.48442 | 21895 ft | 486 kts | 40° |
| 2026-05-05 20:44 | 39.80475 | -75.45460 | 21179 ft | 483 kts | 40° |
| 2026-05-05 20:45 | 39.85328 | -75.39591 | 19789 ft | 476 kts | 40° |
| 2026-05-05 20:45 | 39.87720 | -75.36693 | 19308 ft | 461 kts | 40° |
| 2026-05-05 20:45 | 39.90024 | -75.33896 | 19018 ft | 444 kts | 40° |
| 2026-05-05 20:46 | 39.92239 | -75.31207 | 18442 ft | 430 kts | 40° |
| 2026-05-05 20:46 | 39.94438 | -75.28542 | 17595 ft | 433 kts | 40° |
| 2026-05-05 20:46 | 39.96637 | -75.25874 | 16908 ft | 431 kts | 40° |
| 2026-05-05 20:46 | 39.98818 | -75.23221 | 16323 ft | 426 kts | 40° |
| 2026-05-05 20:47 | 40.00975 | -75.20593 | 15756 ft | 422 kts | 40° |
| 2026-05-05 20:47 | 40.03115 | -75.17984 | 15173 ft | 419 kts | 40° |
| 2026-05-05 20:47 | 40.05237 | -75.15395 | 14584 ft | 417 kts | 40° |
| 2026-05-05 20:47 | 40.07341 | -75.12826 | 14030 ft | 414 kts | 39° |
| 2026-05-05 20:48 | 40.09435 | -75.10266 | 13755 ft | 403 kts | 39° |
| 2026-05-05 20:48 | 40.11433 | -75.07819 | 13446 ft | 387 kts | 39° |
| 2026-05-05 20:48 | 40.13429 | -75.05378 | 11667 ft | 405 kts | 40° |
| 2026-05-05 20:48 | 40.15499 | -75.02847 | 11131 ft | 396 kts | 40° |
| 2026-05-05 20:49 | 40.17443 | -75.00455 | 10978 ft | 373 kts | 40° |
| 2026-05-05 20:49 | 40.19276 | -74.98201 | 10842 ft | 352 kts | 39° |
| 2026-05-05 20:49 | 40.21017 | -74.96062 | 10723 ft | 334 kts | 39° |
| 2026-05-05 20:49 | 40.22667 | -74.94034 | 10561 ft | 317 kts | 39° |
| 2026-05-05 20:50 | 40.24258 | -74.92079 | 10282 ft | 312 kts | 39° |
| 2026-05-05 20:50 | 40.25866 | -74.90083 | 10032 ft | 335 kts | 41° |
| 2026-05-05 20:50 | 40.27497 | -74.87854 | 9628 ft | 348 kts | 44° |
| 2026-05-05 20:50 | 40.29145 | -74.85500 | 9096 ft | 343 kts | 45° |
| 2026-05-05 20:51 | 40.30718 | -74.83245 | 8584 ft | 338 kts | 45° |
| 2026-05-05 20:51 | 40.32297 | -74.81003 | 8148 ft | 330 kts | 45° |
| 2026-05-05 20:51 | 40.33833 | -74.78838 | 7830 ft | 321 kts | 45° |
| 2026-05-05 20:51 | 40.35341 | -74.76718 | 7447 ft | 315 kts | 45° |
| 2026-05-05 20:52 | 40.36819 | -74.74637 | 7073 ft | 309 kts | 46° |
| 2026-05-05 20:52 | 40.38271 | -74.72593 | 6696 ft | 303 kts | 46° |
| 2026-05-05 20:52 | 40.39701 | -74.70583 | 6348 ft | 300 kts | 47° |
| 2026-05-05 20:52 | 40.41100 | -74.68611 | 6229 ft | 287 kts | 46° |
| 2026-05-05 20:53 | 40.42628 | -74.67029 | 6103 ft | 280 kts | 23° |
| 2026-05-05 20:53 | 40.44495 | -74.66297 | 6035 ft | 287 kts | 7° |
| 2026-05-05 20:53 | 40.46493 | -74.65777 | 6002 ft | 294 kts | 7° |
| 2026-05-05 20:53 | 40.48496 | -74.65262 | 5992 ft | 292 kts | 7° |
| 2026-05-05 20:54 | 40.50471 | -74.64749 | 5982 ft | 289 kts | 7° |
| 2026-05-05 20:54 | 40.52444 | -74.64231 | 5894 ft | 292 kts | 7° |
| 2026-05-05 20:54 | 40.54445 | -74.63701 | 5642 ft | 293 kts | 7° |
| 2026-05-05 20:54 | 40.56438 | -74.63168 | 5381 ft | 290 kts | 7° |
| 2026-05-05 20:55 | 40.58402 | -74.62642 | 5135 ft | 286 kts | 7° |
| 2026-05-05 20:55 | 40.60330 | -74.62126 | 5049 ft | 289 kts | 7° |
| 2026-05-05 20:55 | 40.62315 | -74.61594 | 4993 ft | 287 kts | 8° |
| 2026-05-05 20:55 | 40.64229 | -74.61080 | 5007 ft | 284 kts | 7° |
| 2026-05-05 20:56 | 40.66170 | -74.60559 | 4987 ft | 285 kts | 8° |
| 2026-05-05 20:56 | 40.68105 | -74.60041 | 4987 ft | 283 kts | 8° |
| 2026-05-05 20:56 | 40.70048 | -74.59519 | 4992 ft | 286 kts | 7° |
| 2026-05-05 20:56 | 40.71983 | -74.58997 | 4953 ft | 287 kts | 8° |
| 2026-05-05 20:57 | 40.73968 | -74.58465 | 4690 ft | 289 kts | 8° |
| 2026-05-05 20:57 | 40.75920 | -74.57937 | 4462 ft | 286 kts | 8° |
| 2026-05-05 20:57 | 40.77861 | -74.57414 | 4215 ft | 283 kts | 8° |
| 2026-05-05 20:57 | 40.79778 | -74.56889 | 4050 ft | 283 kts | 9° |
| 2026-05-05 20:58 | 40.81697 | -74.56236 | 4019 ft | 285 kts | 12° |
| 2026-05-05 20:58 | 40.83591 | -74.55539 | 3990 ft | 282 kts | 12° |
| 2026-05-05 20:58 | 40.85498 | -74.54899 | 4019 ft | 284 kts | 7° |
| 2026-05-05 20:58 | 40.87436 | -74.54416 | 3987 ft | 282 kts | 7° |
| 2026-05-05 20:59 | 40.89366 | -74.54056 | 4010 ft | 282 kts | 1° |
| 2026-05-05 20:59 | 40.91327 | -74.53820 | 3993 ft | 283 kts | 0° |
| 2026-05-05 20:59 | 40.93284 | -74.53594 | 3995 ft | 281 kts | 1° |
| 2026-05-05 20:59 | 40.95184 | -74.52905 | 3963 ft | 287 kts | 27° |
| 2026-05-05 21:00 | 40.96717 | -74.51238 | 4000 ft | 288 kts | 45° |
| 2026-05-05 21:00 | 40.98078 | -74.49311 | 4003 ft | 287 kts | 47° |
| 2026-05-05 21:00 | 40.99368 | -74.47300 | 3991 ft | 287 kts | 55° |
| 2026-05-05 21:00 | 41.00501 | -74.45119 | 3844 ft | 287 kts | 57° |
| 2026-05-05 21:01 | 41.01587 | -74.42959 | 3564 ft | 273 kts | 57° |
| 2026-05-05 21:01 | 41.02592 | -74.40957 | 3348 ft | 257 kts | 58° |
| 2026-05-05 21:01 | 41.03535 | -74.38991 | 3144 ft | 253 kts | 67° |
| 2026-05-05 21:01 | 41.03936 | -74.36773 | 3082 ft | 249 kts | 87° |
| 2026-05-05 21:02 | 41.04062 | -74.34513 | 3014 ft | 240 kts | 103° |
| 2026-05-05 21:02 | 41.03398 | -74.32719 | 2982 ft | 202 kts | 148° |
| 2026-05-05 21:02 | 41.02254 | -74.31869 | 2983 ft | 187 kts | 157° |
| 2026-05-05 21:02 | 41.01175 | -74.30933 | 2986 ft | 184 kts | 154° |
| 2026-05-05 21:03 | 41.00184 | -74.29820 | 2950 ft | 197 kts | 132° |
| 2026-05-05 21:03 | 40.99796 | -74.28043 | 3002 ft | 214 kts | 95° |
| 2026-05-05 21:03 | 40.99891 | -74.26061 | 2985 ft | 212 kts | 96° |
| 2026-05-05 21:03 | 40.99830 | -74.24099 | 2999 ft | 222 kts | 98° |
| 2026-05-05 21:04 | 40.99756 | -74.21917 | 2997 ft | 255 kts | 97° |
| 2026-05-05 21:04 | 40.99665 | -74.19513 | 2998 ft | 265 kts | 97° |
| 2026-05-05 21:04 | 40.99573 | -74.17068 | 2987 ft | 266 kts | 97° |
| 2026-05-05 21:04 | 40.99483 | -74.14652 | 3026 ft | 273 kts | 97° |
| 2026-05-05 21:05 | 40.99375 | -74.12048 | 2967 ft | 276 kts | 97° |
| 2026-05-05 21:05 | 40.99279 | -74.09596 | 2961 ft | 258 kts | 98° |
| 2026-05-05 21:05 | 40.98776 | -74.07497 | 2958 ft | 229 kts | 135° |
| 2026-05-05 21:05 | 40.97610 | -74.06372 | 2980 ft | 197 kts | 165° |
| 2026-05-05 21:06 | 40.96327 | -74.05877 | 2980 ft | 195 kts | 176° |
| 2026-05-05 21:06 | 40.94963 | -74.05811 | 2976 ft | 194 kts | 193° |
| 2026-05-05 21:06 | 40.93648 | -74.06127 | 2973 ft | 189 kts | 197° |
| 2026-05-05 21:06 | 40.92366 | -74.06492 | 2972 ft | 188 kts | 197° |
| 2026-05-05 21:07 | 40.91081 | -74.06862 | 2961 ft | 189 kts | 197° |
| 2026-05-05 21:07 | 40.89804 | -74.07230 | 2958 ft | 186 kts | 197° |
| 2026-05-05 21:07 | 40.88578 | -74.07581 | 2952 ft | 175 kts | 197° |
| 2026-05-05 21:07 | 40.87374 | -74.07925 | 2969 ft | 179 kts | 197° |
| 2026-05-05 21:08 | 40.86148 | -74.08274 | 2959 ft | 179 kts | 197° |
| 2026-05-05 21:08 | 40.84942 | -74.08611 | 2965 ft | 177 kts | 198° |
| 2026-05-05 21:08 | 40.83734 | -74.08952 | 2967 ft | 178 kts | 197° |
| 2026-05-05 21:08 | 40.82523 | -74.09294 | 2968 ft | 178 kts | 196° |
| 2026-05-05 21:09 | 40.81325 | -74.09625 | 2968 ft | 174 kts | 198° |
| 2026-05-05 21:09 | 40.80158 | -74.09949 | 2919 ft | 171 kts | 197° |
| 2026-05-05 21:09 | 40.79023 | -74.10365 | 2648 ft | 171 kts | 205° |
| 2026-05-05 21:09 | 40.77953 | -74.10943 | 2305 ft | 160 kts | 208° |
| 2026-05-05 21:10 | 40.76986 | -74.11541 | 2045 ft | 146 kts | 209° |
| 2026-05-05 21:10 | 40.76096 | -74.12119 | 1738 ft | 137 kts | 207° |
| 2026-05-05 21:10 | 40.75258 | -74.12645 | 1485 ft | 128 kts | 207° |
| 2026-05-05 21:10 | 40.74444 | -74.13147 | 1218 ft | 131 kts | 208° |
| 2026-05-05 21:11 | 40.73626 | -74.13680 | 906 ft | 132 kts | 209° |
| 2026-05-05 21:11 | 40.72783 | -74.14225 | 709 ft | 141 kts | 207° |
| 2026-05-05 21:11 | 40.72621 | -74.14327 | 674 ft | 140 kts | 208° |
| 2026-05-05 21:12 | 40.71884 | -74.14796 | 487 ft | 135 kts | 205° |
| 2026-05-05 21:12 | 40.71071 | -74.15314 | 340 ft | 123 kts | 208° |
| 2026-05-05 21:13 | 40.70324 | -74.15793 | 160 ft | 117 kts | 209° |
| 2026-05-05 21:13 | 40.69602 | -74.16251 | 30 ft | 117 kts | 208° |
| 2026-05-05 21:13 | 40.68942 | -74.16666 | 23 ft | 86 kts | 203° |
| 2026-05-05 21:13 | 40.68541 | -74.16926 | 21 ft | 42 kts | 205° |
| 2026-05-05 21:14 | 40.68343 | -74.17076 | 21 ft | 30 kts | 218° |
| 2026-05-05 21:14 | 40.68294 | -74.17137 | 21 ft | 29 kts | 226° |
| 2026-05-05 21:15 | 40.68259 | -74.17188 | 21 ft | 28 kts | 232° |
| 2026-05-05 21:15 | 40.68189 | -74.17316 | 21 ft | 15 kts | 235° |
| 2026-05-05 21:15 | 40.68144 | -74.17403 | 20 ft | 4 kts | 242° |
| 2026-05-05 21:15 | 40.68155 | -74.17477 | 20 ft | 19 kts | 295° |
| 2026-05-05 21:16 | 40.68205 | -74.17617 | 21 ft | 14 kts | 295° |
| 2026-05-05 21:16 | 40.68281 | -74.17692 | 23 ft | 14 kts | 331° |
| 2026-05-05 21:16 | 40.68328 | -74.17789 | 21 ft | 10 kts | 294° |
| 2026-05-05 21:16 | 40.68355 | -74.17867 | 21 ft | 9 kts | 297° |
| 2026-05-05 21:17 | 40.68384 | -74.17942 | 21 ft | 9 kts | 295° |
| 2026-05-05 21:17 | 40.68411 | -74.18016 | 21 ft | 9 kts | 295° |
| 2026-05-05 21:17 | 40.68439 | -74.18092 | 21 ft | 10 kts | 297° |
| 2026-05-05 21:17 | 40.68474 | -74.18174 | 21 ft | 10 kts | 308° |
| 2026-05-05 21:18 | 40.68503 | -74.18305 | 21 ft | 17 kts | 277° |
| 2026-05-05 21:18 | 40.68508 | -74.18416 | 21 ft | 11 kts | 276° |
| 2026-05-05 21:18 | 40.68514 | -74.18539 | 21 ft | 1 kts | 252° |
| 2026-05-05 21:18 | 40.68494 | -74.18547 | 22 ft | 10 kts | 190° |
| 2026-05-05 21:19 | 40.68456 | -74.18552 | 21 ft | 0 kts | 184° |
| 2026-05-05 21:19 | 40.68453 | -74.18552 | 21 ft | 0 kts | 185° |